sensor_id;sensor_type;location;lat;lon;timestamp;temperature;humidity
4934;DHT22;2482;49.154;8.254;2022-11-15T00:00:18;8.40;99.90
4934;DHT22;2482;49.154;8.254;2022-11-15T00:02:47;8.40;99.90
4934;DHT22;2482;49.154;8.254;2022-11-15T00:05:15;8.50;99.90
4934;DHT22;2482;49.154;8.254;2022-11-15T00:07:43;8.50;99.90
4934;DHT22;2482;49.154;8.254;2022-11-15T00:10:22;8.50;99.90
4934;DHT22;2482;49.154;8.254;2022-11-15T00:12:50;8.60;99.90
4934;DHT22;2482;49.154;8.254;2022-11-15T00:15:20;8.60;99.90
4934;DHT22;2482;49.154;8.254;2022-11-15T00:17:49;8.50;99.90
4934;DHT22;2482;49.154;8.254;2022-11-15T00:20:18;8.60;99.90
4934;DHT22;2482;49.154;8.254;2022-11-15T00:22:48;8.60;99.90
4934;DHT22;2482;49.154;8.254;2022-11-15T00:25:19;8.60;99.90
4934;DHT22;2482;49.154;8.254;2022-11-15T00:27:55;8.60;99.90
4934;DHT22;2482;49.154;8.254;2022-11-15T00:30:24;8.60;99.90
4934;DHT22;2482;49.154;8.254;2022-11-15T00:32:54;8.70;99.90
4934;DHT22;2482;49.154;8.254;2022-11-15T00:35:23;8.70;99.90
4934;DHT22;2482;49.154;8.254;2022-11-15T00:37:52;8.70;99.90
4934;DHT22;2482;49.154;8.254;2022-11-15T00:40:24;8.70;99.90
4934;DHT22;2482;49.154;8.254;2022-11-15T00:42:56;8.70;99.90
4934;DHT22;2482;49.154;8.254;2022-11-15T00:45:25;8.80;99.90
4934;DHT22;2482;49.154;8.254;2022-11-15T00:47:54;8.80;99.90
4934;DHT22;2482;49.154;8.254;2022-11-15T00:50:22;8.80;99.90
4934;DHT22;2482;49.154;8.254;2022-11-15T00:52:53;8.80;99.90
4934;DHT22;2482;49.154;8.254;2022-11-15T00:55:24;8.80;99.90
4934;DHT22;2482;49.154;8.254;2022-11-15T00:57:57;8.80;99.90
4934;DHT22;2482;49.154;8.254;2022-11-15T01:00:29;8.70;99.90
4934;DHT22;2482;49.154;8.254;2022-11-15T01:02:57;8.70;99.90
4934;DHT22;2482;49.154;8.254;2022-11-15T01:05:28;8.70;99.90
4934;DHT22;2482;49.154;8.254;2022-11-15T01:07:59;8.90;99.90
4934;DHT22;2482;49.154;8.254;2022-11-15T01:10:31;8.90;99.90
4934;DHT22;2482;49.154;8.254;2022-11-15T01:12:59;8.90;99.90
4934;DHT22;2482;49.154;8.254;2022-11-15T01:15:33;8.90;99.90
4934;DHT22;2482;49.154;8.254;2022-11-15T01:18:01;8.90;99.90
4934;DHT22;2482;49.154;8.254;2022-11-15T01:20:31;8.90;99.90
4934;DHT22;2482;49.154;8.254;2022-11-15T01:23:10;9.00;99.90
4934;DHT22;2482;49.154;8.254;2022-11-15T01:25:38;9.10;99.90
4934;DHT22;2482;49.154;8.254;2022-11-15T01:28:07;9.00;99.90
4934;DHT22;2482;49.154;8.254;2022-11-15T01:30:38;8.90;99.90
4934;DHT22;2482;49.154;8.254;2022-11-15T01:33:11;8.90;99.90
4934;DHT22;2482;49.154;8.254;2022-11-15T01:35:40;9.20;99.90
4934;DHT22;2482;49.154;8.254;2022-11-15T01:38:09;9.30;99.90
4934;DHT22;2482;49.154;8.254;2022-11-15T01:40:37;9.30;99.90
4934;DHT22;2482;49.154;8.254;2022-11-15T01:43:28;9.30;99.90
4934;DHT22;2482;49.154;8.254;2022-11-15T01:49:00;9.30;99.90
4934;DHT22;2482;49.154;8.254;2022-11-15T01:51:36;9.30;99.90
4934;DHT22;2482;49.154;8.254;2022-11-15T01:54:13;9.40;99.90
4934;DHT22;2482;49.154;8.254;2022-11-15T01:56:59;9.50;99.90
4934;DHT22;2482;49.154;8.254;2022-11-15T01:59:34;9.60;99.90
4934;DHT22;2482;49.154;8.254;2022-11-15T02:02:04;9.40;99.90
4934;DHT22;2482;49.154;8.254;2022-11-15T02:04:33;9.40;99.90
4934;DHT22;2482;49.154;8.254;2022-11-15T02:07:08;9.30;99.90
4934;DHT22;2482;49.154;8.254;2022-11-15T02:09:46;9.20;99.90
4934;DHT22;2482;49.154;8.254;2022-11-15T02:12:20;9.20;99.90
4934;DHT22;2482;49.154;8.254;2022-11-15T02:14:53;9.20;99.90
4934;DHT22;2482;49.154;8.254;2022-11-15T02:17:44;9.20;99.90
4934;DHT22;2482;49.154;8.254;2022-11-15T02:20:55;9.30;99.90
4934;DHT22;2482;49.154;8.254;2022-11-15T02:31:00;9.10;99.90
4934;DHT22;2482;49.154;8.254;2022-11-15T02:42:13;9.00;99.90
4934;DHT22;2482;49.154;8.254;2022-11-15T02:45:06;8.90;99.90
4934;DHT22;2482;49.154;8.254;2022-11-15T02:47:43;9.00;99.90
4934;DHT22;2482;49.154;8.254;2022-11-15T02:50:18;8.90;99.90
4934;DHT22;2482;49.154;8.254;2022-11-15T02:52:55;8.90;99.90
4934;DHT22;2482;49.154;8.254;2022-11-15T02:55:37;8.80;99.90
4934;DHT22;2482;49.154;8.254;2022-11-15T03:04:46;8.90;99.90
4934;DHT22;2482;49.154;8.254;2022-11-15T03:07:37;9.00;99.90
4934;DHT22;2482;49.154;8.254;2022-11-15T03:10:23;9.00;99.90
4934;DHT22;2482;49.154;8.254;2022-11-15T03:16:38;9.10;99.90
4934;DHT22;2482;49.154;8.254;2022-11-15T03:22:11;9.30;99.90
4934;DHT22;2482;49.154;8.254;2022-11-15T03:24:54;9.30;99.90
4934;DHT22;2482;49.154;8.254;2022-11-15T03:27:28;9.40;99.90
4934;DHT22;2482;49.154;8.254;2022-11-15T03:30:06;9.40;99.90
4934;DHT22;2482;49.154;8.254;2022-11-15T03:32:55;9.40;99.90
4934;DHT22;2482;49.154;8.254;2022-11-15T03:35:35;9.30;99.90
4934;DHT22;2482;49.154;8.254;2022-11-15T03:38:32;9.50;99.90
4934;DHT22;2482;49.154;8.254;2022-11-15T03:41:09;9.40;99.90
4934;DHT22;2482;49.154;8.254;2022-11-15T03:44:04;9.50;99.90
4934;DHT22;2482;49.154;8.254;2022-11-15T03:49:34;9.40;99.90
4934;DHT22;2482;49.154;8.254;2022-11-15T03:52:09;9.50;99.90
4934;DHT22;2482;49.154;8.254;2022-11-15T03:54:48;9.40;99.90
4934;DHT22;2482;49.154;8.254;2022-11-15T03:57:18;9.50;99.90
4934;DHT22;2482;49.154;8.254;2022-11-15T03:59:49;9.50;99.90
4934;DHT22;2482;49.154;8.254;2022-11-15T04:02:18;9.50;99.90
4934;DHT22;2482;49.154;8.254;2022-11-15T04:04:52;9.50;99.90
4934;DHT22;2482;49.154;8.254;2022-11-15T04:07:20;9.40;99.90
4934;DHT22;2482;49.154;8.254;2022-11-15T04:09:49;9.40;99.90
4934;DHT22;2482;49.154;8.254;2022-11-15T04:12:34;9.40;99.90
4934;DHT22;2482;49.154;8.254;2022-11-15T04:15:21;9.40;99.90
4934;DHT22;2482;49.154;8.254;2022-11-15T04:17:57;9.40;99.90
4934;DHT22;2482;49.154;8.254;2022-11-15T04:20:31;9.40;99.90
4934;DHT22;2482;49.154;8.254;2022-11-15T04:23:21;9.40;99.90
4934;DHT22;2482;49.154;8.254;2022-11-15T04:26:16;9.40;99.90
4934;DHT22;2482;49.154;8.254;2022-11-15T04:28:56;9.30;99.90
4934;DHT22;2482;49.154;8.254;2022-11-15T04:31:48;9.30;99.90
4934;DHT22;2482;49.154;8.254;2022-11-15T04:34:28;9.40;99.90
4934;DHT22;2482;49.154;8.254;2022-11-15T04:36:59;9.40;99.90
4934;DHT22;2482;49.154;8.254;2022-11-15T04:39:43;9.40;99.90
4934;DHT22;2482;49.154;8.254;2022-11-15T04:42:15;9.30;99.90
4934;DHT22;2482;49.154;8.254;2022-11-15T04:44:43;9.30;99.90
4934;DHT22;2482;49.154;8.254;2022-11-15T04:47:11;9.30;99.90
4934;DHT22;2482;49.154;8.254;2022-11-15T04:49:49;9.30;99.90
4934;DHT22;2482;49.154;8.254;2022-11-15T04:52:20;9.20;99.90
4934;DHT22;2482;49.154;8.254;2022-11-15T04:54:48;9.20;99.90
4934;DHT22;2482;49.154;8.254;2022-11-15T04:57:21;9.20;99.90
4934;DHT22;2482;49.154;8.254;2022-11-15T04:59:51;9.20;99.90
4934;DHT22;2482;49.154;8.254;2022-11-15T05:02:20;9.20;99.90
4934;DHT22;2482;49.154;8.254;2022-11-15T05:04:52;9.20;99.90
4934;DHT22;2482;49.154;8.254;2022-11-15T05:07:23;9.20;99.90
4934;DHT22;2482;49.154;8.254;2022-11-15T05:09:56;9.10;99.90
4934;DHT22;2482;49.154;8.254;2022-11-15T05:12:25;9.10;99.90
4934;DHT22;2482;49.154;8.254;2022-11-15T05:14:53;9.10;99.90
4934;DHT22;2482;49.154;8.254;2022-11-15T05:17:21;9.20;99.90
4934;DHT22;2482;49.154;8.254;2022-11-15T05:19:54;9.20;99.90
4934;DHT22;2482;49.154;8.254;2022-11-15T05:22:27;9.20;99.90
4934;DHT22;2482;49.154;8.254;2022-11-15T05:24:55;9.30;99.90
4934;DHT22;2482;49.154;8.254;2022-11-15T05:27:25;9.20;99.90
4934;DHT22;2482;49.154;8.254;2022-11-15T05:29:57;9.30;99.90
4934;DHT22;2482;49.154;8.254;2022-11-15T05:32:25;9.30;99.90
4934;DHT22;2482;49.154;8.254;2022-11-15T05:34:57;9.30;99.90
4934;DHT22;2482;49.154;8.254;2022-11-15T05:37:30;9.20;99.90
4934;DHT22;2482;49.154;8.254;2022-11-15T05:39:58;9.10;99.90
4934;DHT22;2482;49.154;8.254;2022-11-15T05:42:30;9.00;99.90
4934;DHT22;2482;49.154;8.254;2022-11-15T05:45:02;8.90;99.90
4934;DHT22;2482;49.154;8.254;2022-11-15T05:47:39;8.90;99.90
4934;DHT22;2482;49.154;8.254;2022-11-15T05:50:13;8.90;99.90
4934;DHT22;2482;49.154;8.254;2022-11-15T05:52:42;8.80;99.90
4934;DHT22;2482;49.154;8.254;2022-11-15T05:55:12;8.80;99.90
4934;DHT22;2482;49.154;8.254;2022-11-15T05:57:46;8.80;99.90
4934;DHT22;2482;49.154;8.254;2022-11-15T06:00:20;8.80;99.90
4934;DHT22;2482;49.154;8.254;2022-11-15T06:02:48;8.80;99.90
4934;DHT22;2482;49.154;8.254;2022-11-15T06:05:17;8.80;99.90
4934;DHT22;2482;49.154;8.254;2022-11-15T06:07:46;8.70;99.90
4934;DHT22;2482;49.154;8.254;2022-11-15T06:10:14;8.90;99.90
4934;DHT22;2482;49.154;8.254;2022-11-15T06:12:46;8.80;99.90
4934;DHT22;2482;49.154;8.254;2022-11-15T06:15:37;8.70;99.90
4934;DHT22;2482;49.154;8.254;2022-11-15T06:18:07;8.70;99.90
4934;DHT22;2482;49.154;8.254;2022-11-15T06:20:41;8.60;99.90
4934;DHT22;2482;49.154;8.254;2022-11-15T06:23:14;8.60;99.90
4934;DHT22;2482;49.154;8.254;2022-11-15T06:25:44;8.60;99.90
4934;DHT22;2482;49.154;8.254;2022-11-15T06:28:16;8.60;99.90
4934;DHT22;2482;49.154;8.254;2022-11-15T06:30:44;8.60;99.90
4934;DHT22;2482;49.154;8.254;2022-11-15T06:33:25;8.60;99.90
4934;DHT22;2482;49.154;8.254;2022-11-15T06:36:03;8.70;99.90
4934;DHT22;2482;49.154;8.254;2022-11-15T06:38:42;8.60;99.90
4934;DHT22;2482;49.154;8.254;2022-11-15T06:41:14;8.60;99.90
4934;DHT22;2482;49.154;8.254;2022-11-15T06:43:47;8.60;99.90
4934;DHT22;2482;49.154;8.254;2022-11-15T06:46:16;8.60;99.90
4934;DHT22;2482;49.154;8.254;2022-11-15T06:48:52;8.70;99.90
4934;DHT22;2482;49.154;8.254;2022-11-15T06:51:23;8.70;99.90
4934;DHT22;2482;49.154;8.254;2022-11-15T06:53:52;8.70;99.90
4934;DHT22;2482;49.154;8.254;2022-11-15T06:56:26;8.80;99.90
4934;DHT22;2482;49.154;8.254;2022-11-15T06:58:55;8.80;99.90
4934;DHT22;2482;49.154;8.254;2022-11-15T07:01:26;8.70;99.90
4934;DHT22;2482;49.154;8.254;2022-11-15T07:03:57;8.80;99.90
4934;DHT22;2482;49.154;8.254;2022-11-15T07:06:33;8.80;99.90
4934;DHT22;2482;49.154;8.254;2022-11-15T07:09:04;8.80;99.90
4934;DHT22;2482;49.154;8.254;2022-11-15T07:11:36;8.80;99.90
4934;DHT22;2482;49.154;8.254;2022-11-15T07:14:18;8.80;99.90
4934;DHT22;2482;49.154;8.254;2022-11-15T07:16:49;8.80;99.90
4934;DHT22;2482;49.154;8.254;2022-11-15T07:19:17;8.80;99.90
4934;DHT22;2482;49.154;8.254;2022-11-15T07:21:45;8.70;99.90
4934;DHT22;2482;49.154;8.254;2022-11-15T07:24:14;8.70;99.90
4934;DHT22;2482;49.154;8.254;2022-11-15T07:26:44;8.70;99.90
4934;DHT22;2482;49.154;8.254;2022-11-15T07:29:15;8.80;99.90
4934;DHT22;2482;49.154;8.254;2022-11-15T07:31:52;8.80;99.90
4934;DHT22;2482;49.154;8.254;2022-11-15T07:34:20;8.80;99.90
4934;DHT22;2482;49.154;8.254;2022-11-15T07:36:51;8.80;99.90
4934;DHT22;2482;49.154;8.254;2022-11-15T07:39:19;8.90;99.90
4934;DHT22;2482;49.154;8.254;2022-11-15T07:41:49;8.90;99.90
4934;DHT22;2482;49.154;8.254;2022-11-15T07:44:37;8.90;99.90
4934;DHT22;2482;49.154;8.254;2022-11-15T07:47:10;9.00;99.90
4934;DHT22;2482;49.154;8.254;2022-11-15T07:49:42;9.00;99.90
4934;DHT22;2482;49.154;8.254;2022-11-15T07:52:13;9.00;99.90
4934;DHT22;2482;49.154;8.254;2022-11-15T07:54:44;9.10;99.90
4934;DHT22;2482;49.154;8.254;2022-11-15T07:57:12;9.20;99.90
4934;DHT22;2482;49.154;8.254;2022-11-15T07:59:47;9.20;99.90
4934;DHT22;2482;49.154;8.254;2022-11-15T08:02:18;9.20;99.90
4934;DHT22;2482;49.154;8.254;2022-11-15T08:04:47;9.40;99.90
4934;DHT22;2482;49.154;8.254;2022-11-15T08:07:17;9.40;99.90
4934;DHT22;2482;49.154;8.254;2022-11-15T08:09:46;9.50;99.90
4934;DHT22;2482;49.154;8.254;2022-11-15T08:12:17;9.60;99.90
4934;DHT22;2482;49.154;8.254;2022-11-15T08:14:46;9.60;99.90
4934;DHT22;2482;49.154;8.254;2022-11-15T08:17:22;9.60;99.90
4934;DHT22;2482;49.154;8.254;2022-11-15T08:20:00;9.60;99.90
4934;DHT22;2482;49.154;8.254;2022-11-15T08:22:28;9.70;99.90
4934;DHT22;2482;49.154;8.254;2022-11-15T08:24:57;9.80;99.90
4934;DHT22;2482;49.154;8.254;2022-11-15T08:27:25;9.80;99.90
4934;DHT22;2482;49.154;8.254;2022-11-15T08:29:55;9.80;99.90
4934;DHT22;2482;49.154;8.254;2022-11-15T08:32:26;9.80;99.90
4934;DHT22;2482;49.154;8.254;2022-11-15T08:34:56;9.90;99.90
4934;DHT22;2482;49.154;8.254;2022-11-15T08:37:27;10.00;99.90
4934;DHT22;2482;49.154;8.254;2022-11-15T08:39:57;10.10;99.90
4934;DHT22;2482;49.154;8.254;2022-11-15T08:42:27;10.10;99.90
4934;DHT22;2482;49.154;8.254;2022-11-15T08:44:55;10.20;99.90
4934;DHT22;2482;49.154;8.254;2022-11-15T08:47:23;10.20;99.90
4934;DHT22;2482;49.154;8.254;2022-11-15T08:49:52;10.30;99.90
4934;DHT22;2482;49.154;8.254;2022-11-15T08:52:22;10.40;99.90
4934;DHT22;2482;49.154;8.254;2022-11-15T08:54:53;10.50;99.90
4934;DHT22;2482;49.154;8.254;2022-11-15T08:57:23;10.50;99.90
4934;DHT22;2482;49.154;8.254;2022-11-15T09:00:02;10.70;99.90
4934;DHT22;2482;49.154;8.254;2022-11-15T09:02:34;10.70;99.90
4934;DHT22;2482;49.154;8.254;2022-11-15T09:05:02;10.80;99.90
4934;DHT22;2482;49.154;8.254;2022-11-15T09:07:31;11.00;99.90
4934;DHT22;2482;49.154;8.254;2022-11-15T09:10:02;11.20;99.90
4934;DHT22;2482;49.154;8.254;2022-11-15T09:12:31;11.20;99.90
4934;DHT22;2482;49.154;8.254;2022-11-15T09:14:59;11.20;99.90
4934;DHT22;2482;49.154;8.254;2022-11-15T09:17:30;11.30;99.90
4934;DHT22;2482;49.154;8.254;2022-11-15T09:20:00;11.40;99.90
4934;DHT22;2482;49.154;8.254;2022-11-15T09:22:34;11.40;99.90
4934;DHT22;2482;49.154;8.254;2022-11-15T09:25:23;11.60;99.90
4934;DHT22;2482;49.154;8.254;2022-11-15T09:28:06;11.70;99.90
4934;DHT22;2482;49.154;8.254;2022-11-15T09:30:37;11.60;99.90
4934;DHT22;2482;49.154;8.254;2022-11-15T09:33:09;11.70;99.90
4934;DHT22;2482;49.154;8.254;2022-11-15T09:35:39;11.80;99.90
4934;DHT22;2482;49.154;8.254;2022-11-15T09:38:12;11.90;99.90
4934;DHT22;2482;49.154;8.254;2022-11-15T09:40:40;11.90;99.90
4934;DHT22;2482;49.154;8.254;2022-11-15T09:43:32;11.90;99.90
4934;DHT22;2482;49.154;8.254;2022-11-15T09:49:29;12.30;99.90
4934;DHT22;2482;49.154;8.254;2022-11-15T09:52:02;12.20;99.90
4934;DHT22;2482;49.154;8.254;2022-11-15T09:54:36;12.20;99.90
4934;DHT22;2482;49.154;8.254;2022-11-15T10:00:22;11.90;99.90
4934;DHT22;2482;49.154;8.254;2022-11-15T10:03:30;12.00;99.90
4934;DHT22;2482;49.154;8.254;2022-11-15T10:06:05;12.00;99.90
4934;DHT22;2482;49.154;8.254;2022-11-15T10:09:09;12.00;99.90
4934;DHT22;2482;49.154;8.254;2022-11-15T10:11:41;11.90;99.90
4934;DHT22;2482;49.154;8.254;2022-11-15T10:14:19;11.90;99.90
4934;DHT22;2482;49.154;8.254;2022-11-15T10:20:17;11.80;99.90
4934;DHT22;2482;49.154;8.254;2022-11-15T10:22:51;11.70;99.90
4934;DHT22;2482;49.154;8.254;2022-11-15T10:25:24;11.70;99.90
4934;DHT22;2482;49.154;8.254;2022-11-15T10:28:45;11.70;99.90
4934;DHT22;2482;49.154;8.254;2022-11-15T10:30:56;11.70;99.90
4934;DHT22;2482;49.154;8.254;2022-11-15T10:33:37;11.80;99.90
4934;DHT22;2482;49.154;8.254;2022-11-15T10:41:21;12.00;99.90
4934;DHT22;2482;49.154;8.254;2022-11-15T10:47:05;12.20;99.90
4934;DHT22;2482;49.154;8.254;2022-11-15T10:50:00;12.40;99.90
4934;DHT22;2482;49.154;8.254;2022-11-15T10:52:36;12.40;99.90
4934;DHT22;2482;49.154;8.254;2022-11-15T10:57:56;12.70;99.90
4934;DHT22;2482;49.154;8.254;2022-11-15T11:00:34;12.80;99.90
4934;DHT22;2482;49.154;8.254;2022-11-15T11:06:11;13.10;99.90
4934;DHT22;2482;49.154;8.254;2022-11-15T11:09:05;13.30;99.90
4934;DHT22;2482;49.154;8.254;2022-11-15T11:11:47;13.60;99.90
4934;DHT22;2482;49.154;8.254;2022-11-15T11:22:44;13.90;99.90
4934;DHT22;2482;49.154;8.254;2022-11-15T11:25:28;13.90;99.90
4934;DHT22;2482;49.154;8.254;2022-11-15T11:28:36;13.80;99.90
4934;DHT22;2482;49.154;8.254;2022-11-15T11:31:23;14.00;99.90
4934;DHT22;2482;49.154;8.254;2022-11-15T11:34:33;13.60;99.90
4934;DHT22;2482;49.154;8.254;2022-11-15T11:37:33;13.90;99.90
4934;DHT22;2482;49.154;8.254;2022-11-15T11:43:18;14.20;99.90
4934;DHT22;2482;49.154;8.254;2022-11-15T11:46:46;14.10;99.90
4934;DHT22;2482;49.154;8.254;2022-11-15T11:49:34;13.90;99.90
4934;DHT22;2482;49.154;8.254;2022-11-15T11:52:23;14.00;99.90
4934;DHT22;2482;49.154;8.254;2022-11-15T11:55:14;13.80;99.90
4934;DHT22;2482;49.154;8.254;2022-11-15T11:58:11;13.80;99.90
4934;DHT22;2482;49.154;8.254;2022-11-15T12:04:29;14.00;99.90
4934;DHT22;2482;49.154;8.254;2022-11-15T12:10:11;14.10;99.90
4934;DHT22;2482;49.154;8.254;2022-11-15T12:13:17;14.30;99.90
4934;DHT22;2482;49.154;8.254;2022-11-15T12:18:37;14.10;99.90
4934;DHT22;2482;49.154;8.254;2022-11-15T12:24:02;13.90;99.90
4934;DHT22;2482;49.154;8.254;2022-11-15T12:26:56;14.00;99.90
4934;DHT22;2482;49.154;8.254;2022-11-15T12:29:37;14.10;99.90
4934;DHT22;2482;49.154;8.254;2022-11-15T12:32:28;14.20;99.90
4934;DHT22;2482;49.154;8.254;2022-11-15T12:35:03;14.20;99.90
4934;DHT22;2482;49.154;8.254;2022-11-15T12:40:28;13.90;99.90
4934;DHT22;2482;49.154;8.254;2022-11-15T12:43:10;14.00;99.90
4934;DHT22;2482;49.154;8.254;2022-11-15T12:59:59;14.20;99.90
4934;DHT22;2482;49.154;8.254;2022-11-15T13:03:12;14.10;99.90
4934;DHT22;2482;49.154;8.254;2022-11-15T13:05:56;14.40;99.90
4934;DHT22;2482;49.154;8.254;2022-11-15T13:08:42;14.40;99.90
4934;DHT22;2482;49.154;8.254;2022-11-15T13:11:45;14.60;99.90
4934;DHT22;2482;49.154;8.254;2022-11-15T13:17:22;14.50;99.90
4934;DHT22;2482;49.154;8.254;2022-11-15T13:22:59;14.40;99.90
4934;DHT22;2482;49.154;8.254;2022-11-15T13:34:20;14.00;99.90
4934;DHT22;2482;49.154;8.254;2022-11-15T13:37:29;13.80;99.90
4934;DHT22;2482;49.154;8.254;2022-11-15T13:42:52;13.80;99.90
4934;DHT22;2482;49.154;8.254;2022-11-15T13:45:22;13.90;99.90
4934;DHT22;2482;49.154;8.254;2022-11-15T13:47:58;13.90;99.90
4934;DHT22;2482;49.154;8.254;2022-11-15T13:50:36;13.80;99.90
4934;DHT22;2482;49.154;8.254;2022-11-15T13:53:06;13.90;99.90
4934;DHT22;2482;49.154;8.254;2022-11-15T13:55:37;13.90;99.90
4934;DHT22;2482;49.154;8.254;2022-11-15T13:58:09;14.10;99.90
4934;DHT22;2482;49.154;8.254;2022-11-15T14:03:46;13.90;99.90
4934;DHT22;2482;49.154;8.254;2022-11-15T14:06:21;13.80;99.90
4934;DHT22;2482;49.154;8.254;2022-11-15T14:09:29;13.80;99.90
4934;DHT22;2482;49.154;8.254;2022-11-15T14:12:26;13.60;99.90
4934;DHT22;2482;49.154;8.254;2022-11-15T14:15:25;13.70;99.90
4934;DHT22;2482;49.154;8.254;2022-11-15T14:17:59;13.60;99.90
4934;DHT22;2482;49.154;8.254;2022-11-15T14:20:33;13.60;99.90
4934;DHT22;2482;49.154;8.254;2022-11-15T14:25:56;13.60;99.90
4934;DHT22;2482;49.154;8.254;2022-11-15T14:30:56;13.50;99.90
4934;DHT22;2482;49.154;8.254;2022-11-15T14:36:22;13.30;99.90
4934;DHT22;2482;49.154;8.254;2022-11-15T14:38:50;13.30;99.90
4934;DHT22;2482;49.154;8.254;2022-11-15T14:41:28;13.30;99.90
4934;DHT22;2482;49.154;8.254;2022-11-15T14:44:10;13.30;99.90
4934;DHT22;2482;49.154;8.254;2022-11-15T14:46:45;13.20;99.90
4934;DHT22;2482;49.154;8.254;2022-11-15T14:49:27;13.10;99.90
4934;DHT22;2482;49.154;8.254;2022-11-15T14:51:59;13.00;99.90
4934;DHT22;2482;49.154;8.254;2022-11-15T14:54:27;12.90;99.90
4934;DHT22;2482;49.154;8.254;2022-11-15T14:56:55;12.70;99.90
4934;DHT22;2482;49.154;8.254;2022-11-15T14:59:24;12.70;99.90
4934;DHT22;2482;49.154;8.254;2022-11-15T15:01:57;12.70;99.90
4934;DHT22;2482;49.154;8.254;2022-11-15T15:04:26;12.60;99.90
4934;DHT22;2482;49.154;8.254;2022-11-15T15:06:55;12.60;99.90
4934;DHT22;2482;49.154;8.254;2022-11-15T15:09:23;12.60;99.90
4934;DHT22;2482;49.154;8.254;2022-11-15T15:11:51;12.60;99.90
4934;DHT22;2482;49.154;8.254;2022-11-15T15:14:28;12.50;99.90
4934;DHT22;2482;49.154;8.254;2022-11-15T15:16:59;12.70;99.90
4934;DHT22;2482;49.154;8.254;2022-11-15T15:19:27;12.60;99.90
4934;DHT22;2482;49.154;8.254;2022-11-15T15:22:04;12.40;99.90
4934;DHT22;2482;49.154;8.254;2022-11-15T15:24:35;12.30;99.90
4934;DHT22;2482;49.154;8.254;2022-11-15T15:27:06;12.20;99.90
4934;DHT22;2482;49.154;8.254;2022-11-15T15:29:38;12.30;99.90
4934;DHT22;2482;49.154;8.254;2022-11-15T15:32:06;12.10;99.90
4934;DHT22;2482;49.154;8.254;2022-11-15T15:34:38;12.10;99.90
4934;DHT22;2482;49.154;8.254;2022-11-15T15:37:27;12.10;99.90
4934;DHT22;2482;49.154;8.254;2022-11-15T15:39:57;12.10;99.90
4934;DHT22;2482;49.154;8.254;2022-11-15T15:42:25;12.10;99.90
4934;DHT22;2482;49.154;8.254;2022-11-15T15:44:56;12.10;99.90
4934;DHT22;2482;49.154;8.254;2022-11-15T15:47:27;12.00;99.90
4934;DHT22;2482;49.154;8.254;2022-11-15T15:49:59;11.90;99.90
4934;DHT22;2482;49.154;8.254;2022-11-15T15:52:27;11.90;99.90
4934;DHT22;2482;49.154;8.254;2022-11-15T15:54:59;11.90;99.90
4934;DHT22;2482;49.154;8.254;2022-11-15T15:57:38;12.00;99.90
4934;DHT22;2482;49.154;8.254;2022-11-15T16:00:09;12.00;99.90
4934;DHT22;2482;49.154;8.254;2022-11-15T16:02:43;12.00;99.90
4934;DHT22;2482;49.154;8.254;2022-11-15T16:05:14;12.10;99.90
4934;DHT22;2482;49.154;8.254;2022-11-15T16:07:43;12.00;99.90
4934;DHT22;2482;49.154;8.254;2022-11-15T16:10:28;11.80;99.90
4934;DHT22;2482;49.154;8.254;2022-11-15T16:13:01;11.60;99.90
4934;DHT22;2482;49.154;8.254;2022-11-15T16:15:35;11.50;99.90
4934;DHT22;2482;49.154;8.254;2022-11-15T16:18:08;11.50;99.90
4934;DHT22;2482;49.154;8.254;2022-11-15T16:20:47;11.40;99.90
4934;DHT22;2482;49.154;8.254;2022-11-15T16:23:27;11.40;99.90
4934;DHT22;2482;49.154;8.254;2022-11-15T16:26:01;11.40;99.90
4934;DHT22;2482;49.154;8.254;2022-11-15T16:28:34;11.40;99.90
4934;DHT22;2482;49.154;8.254;2022-11-15T16:31:05;11.30;99.90
4934;DHT22;2482;49.154;8.254;2022-11-15T16:33:44;11.30;99.90
4934;DHT22;2482;49.154;8.254;2022-11-15T16:36:19;11.20;99.90
4934;DHT22;2482;49.154;8.254;2022-11-15T16:38:59;11.20;99.90
4934;DHT22;2482;49.154;8.254;2022-11-15T16:41:31;11.10;99.90
4934;DHT22;2482;49.154;8.254;2022-11-15T16:44:07;11.10;99.90
4934;DHT22;2482;49.154;8.254;2022-11-15T16:46:46;11.30;99.90
4934;DHT22;2482;49.154;8.254;2022-11-15T16:49:21;11.50;99.90
4934;DHT22;2482;49.154;8.254;2022-11-15T16:51:52;11.40;99.90
4934;DHT22;2482;49.154;8.254;2022-11-15T16:54:21;11.40;99.90
4934;DHT22;2482;49.154;8.254;2022-11-15T16:56:48;11.30;99.90
4934;DHT22;2482;49.154;8.254;2022-11-15T16:59:19;11.50;99.90
4934;DHT22;2482;49.154;8.254;2022-11-15T17:01:50;11.60;99.90
4934;DHT22;2482;49.154;8.254;2022-11-15T17:04:19;11.30;99.90
4934;DHT22;2482;49.154;8.254;2022-11-15T17:06:52;11.30;99.90
4934;DHT22;2482;49.154;8.254;2022-11-15T17:09:23;11.30;99.90
4934;DHT22;2482;49.154;8.254;2022-11-15T17:11:54;11.40;99.90
4934;DHT22;2482;49.154;8.254;2022-11-15T17:14:23;11.40;99.90
4934;DHT22;2482;49.154;8.254;2022-11-15T17:16:51;11.40;99.90
4934;DHT22;2482;49.154;8.254;2022-11-15T17:19:28;11.30;99.90
4934;DHT22;2482;49.154;8.254;2022-11-15T17:22:02;11.40;99.90
4934;DHT22;2482;49.154;8.254;2022-11-15T17:24:31;11.40;99.90
4934;DHT22;2482;49.154;8.254;2022-11-15T17:27:01;11.40;99.90
4934;DHT22;2482;49.154;8.254;2022-11-15T17:29:32;11.40;99.90
4934;DHT22;2482;49.154;8.254;2022-11-15T17:32:02;11.30;99.90
4934;DHT22;2482;49.154;8.254;2022-11-15T17:34:30;11.40;99.90
4934;DHT22;2482;49.154;8.254;2022-11-15T17:37:04;11.50;99.90
4934;DHT22;2482;49.154;8.254;2022-11-15T17:39:32;11.50;99.90
4934;DHT22;2482;49.154;8.254;2022-11-15T17:42:00;11.50;99.90
4934;DHT22;2482;49.154;8.254;2022-11-15T17:44:34;11.50;99.90
4934;DHT22;2482;49.154;8.254;2022-11-15T17:47:05;11.50;99.90
4934;DHT22;2482;49.154;8.254;2022-11-15T17:49:41;11.50;99.90
4934;DHT22;2482;49.154;8.254;2022-11-15T17:52:12;11.50;99.90
4934;DHT22;2482;49.154;8.254;2022-11-15T17:54:40;11.40;99.90
4934;DHT22;2482;49.154;8.254;2022-11-15T17:57:08;11.40;99.90
4934;DHT22;2482;49.154;8.254;2022-11-15T17:59:36;11.50;99.90
4934;DHT22;2482;49.154;8.254;2022-11-15T18:02:08;11.30;99.90
4934;DHT22;2482;49.154;8.254;2022-11-15T18:04:40;11.30;99.90
4934;DHT22;2482;49.154;8.254;2022-11-15T18:07:11;11.30;99.90
4934;DHT22;2482;49.154;8.254;2022-11-15T18:09:43;11.30;99.90
4934;DHT22;2482;49.154;8.254;2022-11-15T18:12:13;11.30;99.90
4934;DHT22;2482;49.154;8.254;2022-11-15T18:14:44;11.40;99.90
4934;DHT22;2482;49.154;8.254;2022-11-15T18:17:12;11.40;99.90
4934;DHT22;2482;49.154;8.254;2022-11-15T18:19:51;11.40;99.90
4934;DHT22;2482;49.154;8.254;2022-11-15T18:22:20;11.40;99.90
4934;DHT22;2482;49.154;8.254;2022-11-15T18:24:57;11.50;99.90
4934;DHT22;2482;49.154;8.254;2022-11-15T18:27:25;11.60;99.90
4934;DHT22;2482;49.154;8.254;2022-11-15T18:29:57;11.50;99.90
4934;DHT22;2482;49.154;8.254;2022-11-15T18:32:25;11.40;99.90
4934;DHT22;2482;49.154;8.254;2022-11-15T18:34:53;11.40;99.90
4934;DHT22;2482;49.154;8.254;2022-11-15T18:37:22;11.40;99.90
4934;DHT22;2482;49.154;8.254;2022-11-15T18:39:50;11.40;99.90
4934;DHT22;2482;49.154;8.254;2022-11-15T18:42:26;11.40;99.90
4934;DHT22;2482;49.154;8.254;2022-11-15T18:45:02;11.40;99.90
4934;DHT22;2482;49.154;8.254;2022-11-15T18:47:31;11.50;99.90
4934;DHT22;2482;49.154;8.254;2022-11-15T18:50:00;11.60;99.90
4934;DHT22;2482;49.154;8.254;2022-11-15T18:52:33;11.60;99.90
4934;DHT22;2482;49.154;8.254;2022-11-15T18:55:02;11.50;99.90
4934;DHT22;2482;49.154;8.254;2022-11-15T18:57:41;11.40;99.90
4934;DHT22;2482;49.154;8.254;2022-11-15T19:00:15;11.40;99.90
4934;DHT22;2482;49.154;8.254;2022-11-15T19:02:46;11.30;99.90
4934;DHT22;2482;49.154;8.254;2022-11-15T19:05:14;11.30;99.90
4934;DHT22;2482;49.154;8.254;2022-11-15T19:07:47;11.30;99.90